• Join FlightAware (Why Join?)
  • Login
  • US Flag 
04:13AM EDT


 

Airport Tracker/Info


-or-


 

Live Flight TrackerFlight Track Log ✈ N121JM ✈ 25-Apr-2013 ✈ KMMU - KPBI

Flight Track Log - Related Links

Times and Time Zones

All times are in EDT time to prevent confusion due to time zone crossing. See the N121JM flight status page for this flight to view local times or setup timezone preferences in your user account.

Time Position Orientation Groundspeed Altitude Reporting Facility
EDT Latitude Longitude Course Direction KTS MPH feet Rate Location/Type
03:06PM 40.7500 -74.4333 150° Southeast 198 228 2,800  Level New York TRACON
03:07PM 40.6833 -74.3833 150° Southeast 235 270 5,100 2,760 Climbing New York TRACON
03:08PM 40.6333 -74.3333 143° Southeast 264 304 8,400 3,240 Climbing New York TRACON
03:09PM 40.5222 -74.3419 183° South 252 290 13,400 2,640 Climbing New York Center
03:10PM 40.4422 -74.2944 156° South 288 331 15,100 1,680 Climbing New York Center
03:11PM 40.3528 -74.2217 148° Southeast 357 411 16,900 1,740 Climbing New York Center
03:13PM 40.1972 -74.2200 180° South 349 402 19,600 1,860 Climbing Washington Center
03:14PM 40.0994 -74.2300 184° South 354 407 21,800 2,100 Climbing Washington Center
03:15PM 40.0039 -74.2561 192° South 354 407 23,800 1,920 Climbing Washington Center
03:17PM 39.8492 -74.4022 216° Southwest 343 395 27,600 1,620 Climbing Washington Center
03:18PM 39.7625 -74.4739 212° Southwest 356 410 28,800 1,320 Climbing Washington Center
03:19PM 39.6733 -74.5400 210° Southwest 368 423 30,300 1,620 Climbing Washington Center
03:20PM 39.5803 -74.6114 211° Southwest 381 438 32,100 1,800 Climbing Washington Center
03:21PM 39.4911 -74.6744 209° Southwest 386 444 33,900 900 Climbing Washington Center
03:22PM 39.4000 -74.7456 211° Southwest 381 438 34,000 360 Climbing Washington Center
03:23PM 39.3089 -74.8111 209° Southwest 386 444 34,700 840 Climbing Washington Center
03:24PM 39.2194 -74.8764 209° Southwest 380 437 35,700 1,080 Climbing Washington Center
03:25PM 39.1283 -74.9442 210° Southwest 380 437 36,900 1,200 Climbing Washington Center
03:26PM 39.0369 -75.0092 209° Southwest 380 437 38,100 1,200 Climbing Washington Center
03:27PM 38.9456 -75.0819 212° Southwest 380 437 39,300 1,140 Climbing Washington Center
03:28PM 38.8542 -75.1492 210° Southwest 380 437 40,400 1,020 Climbing Washington Center
03:29PM 38.7647 -75.2108 208° Southwest 380 437 41,400 900 Climbing Washington Center
03:30PM 38.6753 -75.2806 211° Southwest 380 437 42,200 660 Climbing Washington Center
03:31PM 38.5836 -75.3367 206° Southwest 380 437 42,800 360 Climbing Washington Center
03:32PM 38.4942 -75.4061 211° Southwest 380 437 43,000 60 Climbing Washington Center
03:33PM 38.4025 -75.4725 210° Southwest 380 437 43,000  Level Washington Center
03:34PM 38.3233 -75.5281 209° Southwest 387 445 43,000  Level Washington Center
03:35PM 38.2147 -75.5917 205° Southwest 393 452 43,000  Level Washington Center
03:36PM 38.1106 -75.6550 206° Southwest 393 452 43,000  Level Washington Center
03:37PM 38.0189 -75.7183 209° Southwest 383 441 43,000  Level Washington Center
03:38PM 37.9247 -75.7761 206° Southwest 377 434 43,000  Level Washington Center
03:39PM 37.8225 -75.8336 204° Southwest 389 448 43,000  Level Washington Center
03:40PM 37.7264 -75.9017 209° Southwest 394 453 43,000  Level Washington Center
03:41PM 37.6219 -75.9536 202° Southwest 400 460 43,000  Level Washington Center
03:42PM 37.5133 -76.0003 199° South 406 467 43,000  Level Washington Center
03:43PM 37.4047 -76.0467 199° South 411 473 43,000  Level Washington Center
03:44PM 37.2961 -76.0906 198° South 411 473 43,000  Level Washington Center
03:45PM 37.1894 -76.1394 200° South 416 479 43,000  Level Washington Center
03:46PM 37.0747 -76.1803 196° South 416 479 43,000  Level Washington Center
03:47PM 36.9658 -76.2236 198° South 421 484 43,000  Level Washington Center
03:48PM 36.8572 -76.2694 199° South 421 484 43,000  Level Washington Center
03:49PM 36.7506 -76.3178 200° South 421 484 43,000  Level Washington Center
03:50PM 36.6522 -76.3633 200° South 421 484 43,000  Level Washington Center
03:51PM 36.5433 -76.4064 198° South 421 484 43,000  Level Washington Center
03:52PM 36.4306 -76.4542 199° South 421 484 43,000  Level Washington Center
03:53PM 36.3217 -76.4969 198° South 427 491 43,000  Level Washington Center
03:54PM 36.2064 -76.5444 198° South 427 491 43,000  Level Washington Center
03:55PM 36.0956 -76.5919 199° South 427 491 43,000  Level Washington Center
03:56PM 35.9844 -76.6367 198° South 427 491 43,000  Level Washington Center
03:57PM 35.8736 -76.6814 198° South 427 491 43,000  Level Washington Center
03:58PM 35.7583 -76.7258 197° South 427 491 43,000  Level Washington Center
03:59PM 35.6494 -76.7731 199° South 427 491 43,000  Level Washington Center
04:00PM 35.5406 -76.8172 198° South 427 491 43,000  Level Washington Center
04:01PM 35.4275 -76.8614 198° South 427 491 43,000  Level Washington Center
04:02PM 35.3122 -76.9081 198° South 427 491 43,000  Level Washington Center
04:03PM 35.1969 -76.9544 198° South 432 497 43,000  Level Washington Center
04:04PM 35.0731 -77.0056 199° South 432 497 43,000  Level Washington Center
04:05PM 34.9600 -77.0544 200° South 427 491 43,000  Level Washington Center
04:06PM 34.8444 -77.1003 198° South 427 491 43,000  Level Washington Center
04:07PM 34.7272 -77.1461 198° South 438 504 43,000  Level Washington Center
04:08PM 34.6097 -77.1919 198° South 443 510 43,000  Level Washington Center
04:09PM 34.4944 -77.2375 198° South 443 510 43,000  Level Washington Center
04:10PM 34.3789 -77.2856 199° South 443 510 43,000  Level Washington Center
04:11PM 34.2614 -77.3283 197° South 443 510 43,000  Level Washington Center
04:12PM 34.1461 -77.3736 198° South 443 510 43,000  Level Washington Center
04:13PM 34.0039 -77.4294 198° South 442 509 43,000  Level Jacksonville Center
04:14PM 33.8869 -77.4717 197° South 437 503 43,000  Level Jacksonville Center
04:15PM 33.7719 -77.5189 199° South 432 497 43,000  Level Jacksonville Center
04:16PM 33.6653 -77.5603 198° South 439 505 43,000  Level Jacksonville Center
04:17PM 33.5381 -77.6103 198° South 439 505 43,000  Level Jacksonville Center
04:18PM 33.4189 -77.6547 197° South 439 505 43,000  Level Jacksonville Center
04:19PM 33.2978 -77.7017 198° South 450 518 43,000  Level Jacksonville Center
04:20PM 33.1806 -77.7456 197° South 450 518 43,000  Level Jacksonville Center
04:21PM 33.0592 -77.7897 197° South 455 524 43,000  Level Jacksonville Center
04:22PM 32.9400 -77.8361 198° South 455 524 43,000  Level Jacksonville Center
04:23PM 32.8208 -77.8822 198° South 455 524 43,000  Level Jacksonville Center
04:24PM 32.6975 -77.9261 197° South 455 524 43,000  Level Jacksonville Center
04:25PM 32.5761 -77.9747 199° South 455 524 43,000  Level Jacksonville Center
04:26PM 32.4528 -78.0208 198° South 455 524 43,000  Level Jacksonville Center
04:27PM 32.3311 -78.0642 197° South 455 524 43,000  Level Jacksonville Center
04:28PM 32.2119 -78.1122 199° South 455 524 43,000  Level Jacksonville Center
04:29PM 32.0906 -78.1578 198° South 455 524 43,000  Level Jacksonville Center
04:30PM 31.9711 -78.1981 196° South 455 524 43,000  Level Jacksonville Center
04:31PM 31.8494 -78.2411 197° South 455 524 43,000  Level Jacksonville Center
04:32PM 31.7303 -78.2958 201° Southwest 461 531 43,000  Level Jacksonville Center
04:33PM 31.6086 -78.3383 197° South 461 531 43,000  Level Jacksonville Center
04:34PM 31.4853 -78.3858 198° South 461 531 43,000  Level Jacksonville Center
04:36PM 31.2419 -78.4753 197° South 456 525 43,000  Level Jacksonville Center
04:37PM 31.1225 -78.5197 198° South 456 525 43,000  Level Jacksonville Center
04:38PM 31.0153 -78.5586 197° South 449 517 43,000  Level Jacksonville Center
04:39PM 30.8958 -78.6028 198° South 449 517 43,000  Level Jacksonville Center
04:40PM 30.7739 -78.6472 197° South 455 524 43,000  Level Jacksonville Center
04:42PM 30.5369 -78.7314 197° South 444 511 43,000  Level Miami Center
04:43PM 30.4156 -78.7675 194° South 444 511 43,000  Level Miami Center
04:44PM 30.2881 -78.7967 191° South 456 525 43,000  Level Miami Center
04:45PM 30.1625 -78.8278 192° South 468 539 43,000  Level Miami Center
04:46PM 30.0350 -78.8567 191° South 468 539 43,000  Level Miami Center
04:47PM 29.9136 -78.8928 194° South 463 533 43,000  Level Miami Center
04:48PM 29.7881 -78.9214 191° South 463 533 43,000  Level Miami Center
04:49PM 29.6603 -78.9500 191° South 473 544 43,000 -780 Level Miami Center
04:51PM 29.4008 -79.0094 191° South 474 545 40,800 -1,260 Descending Miami Center
04:52PM 29.2692 -79.0378 191° South 484 557 39,300 -1,500 Descending Miami Center
04:53PM 29.1350 -79.0683 191° South 484 557 37,800 -1,500 Descending Miami Center
04:54PM 28.9947 -79.1011 192° South 484 557 36,300 -1,500 Descending Miami Center
04:55PM 28.8628 -79.1317 191° South 489 563 34,800 -1,500 Descending Miami Center
04:56PM 28.7289 -79.1619 191° South 489 563 33,300 -1,500 Descending Miami Center
04:57PM 28.5969 -79.1900 191° South 488 562 31,800 -1,500 Descending Miami Center
04:58PM 28.4608 -79.2203 191° South 488 562 30,300 -1,500 Descending Miami Center
04:59PM 28.3308 -79.2483 191° South 488 562 28,800 -1,440 Descending Miami Center
05:01PM 28.1590 -79.2760 194° South  Level FlightAware Approximate
05:01PM 28.0772 -79.3064 194° South 468 539 26,100  Level Miami Center
05:02PM 27.9578 -79.3319 191° South 463 533 25,900 -1,080 Descending Miami Center
05:03PM 27.8464 -79.3861 203° Southwest 451 519 24,000 -2,100 Descending Miami Center
05:04PM 27.7447 -79.4564 211° Southwest 439 505 21,800 -2,160 Descending Miami Center
05:05PM 27.6581 -79.5178 212° Southwest 423 487 19,700 -2,100 Descending Miami Center
05:06PM 27.5628 -79.5836 211° Southwest 410 472 17,700 -2,400 Descending Miami Center
05:07PM 27.4592 -79.6561 212° Southwest 403 464 15,000 -2,460 Descending Miami Center
05:08PM 27.3725 -79.7169 212° Southwest 391 450 12,800 -2,160 Descending Miami Center
05:09PM 27.2878 -79.7758 212° Southwest 380 437 10,700 -2,100 Descending Miami Center
05:10PM 27.2114 -79.8300 212° Southwest 371 427 8,600 -1,380 Descending Miami Center
05:11PM 27.1183 -79.8881 209° Southwest 357 411 8,000 -300 Descending Miami Center
05:12PM 27.0400 -79.9350 208° Southwest 344 396 8,000 -480 Level Miami Center
05:13PM 26.9703 -79.9775 209° Southwest 305 351 7,100 -1,200 Descending Miami Center
05:14PM 26.9497 -80.0517 253° West 262 302 5,600 -1,440 Descending Miami Center
05:15PM 26.9150 -80.1181 240° Southwest 262 302 4,300 -840 Descending Miami Center
05:16PM 26.8500 -80.1325 191° South 217 250 4,000 -180 Descending Miami Center
05:17PM 26.8236 -80.1856 241° Southwest 191 220 4,000 -540 Level Miami Center
05:18PM 26.7750 -80.2167 210° Southwest 191 220 3,000 -1,020 Descending Miami Center
05:20PM 26.6832 -80.0956 250° West  Level Estimated
05:27PM 26.6832 -80.0956 110° East  Level Estimated
05:28PM 26.6832 -80.0956 110° East  Level Estimated
05:29PM 26.6832 -80.0956 110° East  Level Estimated
05:30PM 26.6832 -80.0956 110° East  Level Estimated